Time;durP1;ratioP1;P1;durP2;ratioP2;P2;SDS_P1;SDS_P2;PMS_P1;PMS_P2;Temp;Humidity;BMP_temperature;BMP_pressure;BME280_temperature;BME280_humidity;BME280_pressure;Samples;Min_cycle;Max_cycle;Signal;HPM_P1;HPM_P2
2022/05/17 00:01:22;;;;;;;9.50;8.50;;;15.10;99.90;;;;;;5120381;28;20219;-71
2022/05/17 00:03:50;;;;;;;12.63;8.17;;;15.20;99.90;;;;;;5115175;28;20196;-71
2022/05/17 00:06:17;;;;;;;8.80;7.90;;;15.20;99.90;;;;;;5114908;28;20199;-71
2022/05/17 00:08:43;;;;;;;12.53;8.40;;;15.10;99.90;;;;;;5123960;27;20691;-71
2022/05/17 00:11:10;;;;;;;9.93;7.77;;;15.00;99.90;;;;;;5115182;27;20233;-71
2022/05/17 00:13:37;;;;;;;9.13;7.87;;;14.90;99.90;;;;;;5113807;28;20196;-71
2022/05/17 00:16:05;;;;;;;11.87;7.70;;;14.80;99.90;;;;;;5113461;28;20215;-71
2022/05/17 00:18:33;;;;;;;8.20;6.90;;;14.90;99.90;;;;;;5113479;28;20192;-71
2022/05/17 00:21:01;;;;;;;10.40;7.43;;;14.80;99.90;;;;;;5113347;28;20231;-71
2022/05/17 00:23:28;;;;;;;9.57;7.27;;;14.80;99.90;;;;;;5113197;28;20195;-71
2022/05/17 00:25:55;;;;;;;8.37;7.30;;;14.80;99.90;;;;;;5113111;28;20256;-71
2022/05/17 00:28:22;;;;;;;11.87;7.83;;;14.70;99.90;;;;;;5113394;28;20248;-71
2022/05/17 00:30:50;;;;;;;8.47;7.07;;;14.60;99.90;;;;;;5113314;28;20283;-71
2022/05/17 00:33:17;;;;;;;9.23;7.33;;;14.60;99.90;;;;;;5113190;28;20260;-71
2022/05/17 00:35:45;;;;;;;9.10;7.13;;;14.50;99.90;;;;;;5113135;28;20203;-71
2022/05/17 00:38:13;;;;;;;9.83;7.47;;;14.40;99.90;;;;;;5113019;28;20196;-71
2022/05/17 00:40:40;;;;;;;10.47;8.00;;;14.50;99.90;;;;;;5113098;28;20191;-71
2022/05/17 00:43:08;;;;;;;10.77;7.97;;;14.50;99.90;;;;;;5114161;28;20631;-69
2022/05/17 00:45:35;;;;;;;9.57;8.20;;;14.40;99.90;;;;;;5117521;28;20203;-71
2022/05/17 00:48:05;;;;;;;12.07;7.97;;;14.50;99.90;;;;;;5117472;28;20256;-71
2022/05/17 00:50:35;;;;;;;11.00;8.57;;;14.50;99.90;;;;;;5117261;28;20646;-71
2022/05/17 00:53:06;;;;;;;11.77;8.97;;;14.50;99.90;;;;;;5117182;28;20202;-71
2022/05/17 00:55:38;;;;;;;13.13;9.40;;;14.40;99.90;;;;;;5117381;28;20200;-71
2022/05/17 00:58:12;;;;;;;11.17;9.53;;;14.40;99.90;;;;;;5117229;28;20223;-72
2022/05/17 01:00:44;;;;;;;11.77;9.30;;;14.40;99.90;;;;;;5116958;28;20227;-71
2022/05/17 01:03:14;;;;;;;13.43;9.97;;;14.50;99.90;;;;;;5117020;28;20200;-71
2022/05/17 01:05:44;;;;;;;10.63;9.53;;;14.40;99.90;;;;;;5117205;28;20253;-71
2022/05/17 01:08:13;;;;;;;11.30;10.20;;;14.30;99.90;;;;;;5122977;27;20536;-71
2022/05/17 01:10:41;;;;;;;11.40;10.27;;;14.30;99.90;;;;;;5122621;27;20597;-71
2022/05/17 01:15:52;;;;;;;12.43;10.37;;;14.30;99.90;;;;;;5116852;28;20198;-71
2022/05/17 01:18:19;;;;;;;13.03;11.00;;;14.20;99.90;;;;;;5116825;28;20235;-71
2022/05/17 01:20:45;;;;;;;14.67;10.73;;;14.30;99.90;;;;;;5116870;28;20192;-71
2022/05/17 01:23:14;;;;;;;11.90;10.70;;;14.40;99.90;;;;;;5116795;28;20200;-71
2022/05/17 01:25:41;;;;;;;12.37;10.87;;;14.40;99.90;;;;;;5116647;28;20248;-71
2022/05/17 01:28:13;;;;;;;14.07;10.60;;;14.50;99.90;;;;;;5116514;28;20204;-71
2022/05/17 01:30:40;;;;;;;13.47;10.23;;;14.30;99.90;;;;;;5116423;28;20203;-71
2022/05/17 01:33:12;;;;;;;13.23;11.07;;;14.20;99.90;;;;;;5116590;28;20206;-71
2022/05/17 01:35:40;;;;;;;16.60;11.20;;;14.20;99.90;;;;;;5116476;28;20192;-71
2022/05/17 01:38:07;;;;;;;17.70;11.70;;;14.10;99.90;;;;;;5116376;28;20303;-71
2022/05/17 01:40:35;;;;;;;14.67;11.30;;;14.00;99.90;;;;;;5116253;28;20245;-71
2022/05/17 01:43:02;;;;;;;17.67;12.03;;;14.00;99.90;;;;;;5116418;28;20643;-71
2022/05/17 01:45:29;;;;;;;13.53;12.17;;;13.90;99.90;;;;;;5116249;28;20262;-71
2022/05/17 01:47:56;;;;;;;16.00;12.43;;;13.90;99.90;;;;;;5116336;28;20196;-71
2022/05/17 01:50:23;;;;;;;18.53;12.57;;;13.80;99.90;;;;;;5116203;28;20604;-71
2022/05/17 01:52:50;;;;;;;17.00;13.43;;;13.70;99.90;;;;;;5116195;28;20247;-71
2022/05/17 01:55:17;;;;;;;17.67;13.93;;;13.70;99.90;;;;;;5115956;28;20217;-71
2022/05/17 01:57:46;;;;;;;15.17;12.53;;;13.60;99.90;;;;;;5115809;28;20743;-71
2022/05/17 02:00:15;;;;;;;18.30;14.57;;;13.50;99.90;;;;;;5116041;27;20235;-71
2022/05/17 02:02:41;;;;;;;16.37;14.67;;;13.50;99.90;;;;;;5123166;27;20199;-71
2022/05/17 02:05:09;;;;;;;16.33;13.90;;;13.50;99.90;;;;;;5125912;27;20207;-71
2022/05/17 02:07:35;;;;;;;15.70;14.13;;;13.50;99.90;;;;;;5126239;27;20200;-71
2022/05/17 02:10:02;;;;;;;16.63;14.83;;;13.40;99.90;;;;;;5119804;27;20188;-71
2022/05/17 02:12:29;;;;;;;17.17;15.23;;;13.40;99.90;;;;;;5115839;28;20191;-71
2022/05/17 02:14:57;;;;;;;19.93;16.03;;;13.30;99.90;;;;;;5115773;28;20199;-71
2022/05/17 02:17:23;;;;;;;17.57;15.20;;;13.30;99.90;;;;;;5115516;28;20683;-71
2022/05/17 02:19:50;;;;;;;19.50;16.03;;;13.30;99.90;;;;;;5115503;28;20192;-71
2022/05/17 02:22:16;;;;;;;19.87;16.20;;;13.30;99.90;;;;;;5115575;28;20253;-71
2022/05/17 02:24:43;;;;;;;19.23;16.50;;;13.30;99.90;;;;;;5115404;28;20240;-71
2022/05/17 02:27:10;;;;;;;22.17;17.83;;;13.10;99.90;;;;;;5115400;28;20199;-71
2022/05/17 02:29:36;;;;;;;21.33;18.17;;;13.00;99.90;;;;;;5115524;28;20196;-72
2022/05/17 02:32:05;;;;;;;22.20;18.40;;;12.90;99.90;;;;;;5115447;28;20248;-71
2022/05/17 02:34:34;;;;;;;27.23;19.43;;;12.90;99.90;;;;;;5115161;28;20195;-71
2022/05/17 02:37:01;;;;;;;22.70;19.20;;;12.90;99.90;;;;;;5115046;28;20212;-70
2022/05/17 02:39:27;;;;;;;25.03;19.27;;;12.90;99.90;;;;;;5115353;28;20248;-69
2022/05/17 02:41:54;;;;;;;29.90;20.80;;;12.80;99.90;;;;;;5115370;28;20622;-71
2022/05/17 02:44:21;;;;;;;21.90;18.67;;;12.80;99.90;;;;;;5115025;28;20203;-71
2022/05/17 02:46:47;;;;;;;23.63;19.10;;;12.70;99.90;;;;;;5116182;27;20200;-71
2022/05/17 02:49:15;;;;;;;26.97;20.67;;;12.80;99.90;;;;;;5135549;27;20203;-71
2022/05/17 02:51:42;;;;;;;22.87;19.40;;;12.70;99.90;;;;;;5135317;27;20240;-69
2022/05/17 02:54:10;;;;;;;23.20;20.13;;;12.70;99.90;;;;;;5135712;27;20583;-70
2022/05/17 02:56:37;;;;;;;22.60;19.83;;;12.60;99.90;;;;;;5135514;27;20199;-70
2022/05/17 02:59:04;;;;;;;22.73;20.33;;;12.60;99.90;;;;;;5135377;27;20237;-69
2022/05/17 03:01:31;;;;;;;30.23;20.40;;;12.70;99.90;;;;;;5135281;27;20227;-69
2022/05/17 03:03:58;;;;;;;26.97;21.10;;;12.60;99.90;;;;;;5135371;27;20199;-69
2022/05/17 03:06:26;;;;;;;24.13;21.27;;;12.50;99.90;;;;;;5134592;27;20199;-70
2022/05/17 03:08:52;;;;;;;24.33;20.37;;;12.60;99.90;;;;;;5115545;27;20221;-69
2022/05/17 03:11:19;;;;;;;29.77;21.50;;;12.60;99.90;;;;;;5126479;27;20207;-70
2022/05/17 03:13:45;;;;;;;24.40;20.90;;;12.60;99.90;;;;;;5123422;27;20199;-70
2022/05/17 03:16:12;;;;;;;28.93;22.33;;;12.60;99.90;;;;;;5114506;28;20196;-70
2022/05/17 03:18:40;;;;;;;28.40;21.93;;;12.60;99.90;;;;;;5124691;27;20314;-70
2022/05/17 03:21:06;;;;;;;26.57;21.53;;;12.70;99.90;;;;;;5134940;27;20294;-70
2022/05/17 03:23:35;;;;;;;24.67;20.60;;;12.70;99.90;;;;;;5142659;27;20220;-70
2022/05/17 03:26:01;;;;;;;23.30;20.53;;;12.80;99.90;;;;;;5135013;27;20596;-69
2022/05/17 03:28:28;;;;;;;25.30;21.33;;;12.80;99.90;;;;;;5132736;27;20248;-70
2022/05/17 03:30:55;;;;;;;23.50;20.57;;;12.90;99.90;;;;;;5114299;28;20241;-69
2022/05/17 03:33:21;;;;;;;26.53;21.23;;;12.90;99.90;;;;;;5114111;28;20650;-69
2022/05/17 03:35:48;;;;;;;23.70;20.50;;;12.80;99.90;;;;;;5114240;28;20196;-69
2022/05/17 03:38:15;;;;;;;26.37;21.00;;;12.80;99.90;;;;;;5114090;28;20223;-69
2022/05/17 03:40:43;;;;;;;23.73;20.30;;;12.90;99.90;;;;;;5114018;28;20195;-69
2022/05/17 03:43:09;;;;;;;26.30;21.10;;;12.90;99.90;;;;;;5114013;28;20256;-69
2022/05/17 03:45:36;;;;;;;25.43;20.63;;;12.90;99.90;;;;;;5113855;28;20248;-69
2022/05/17 03:48:03;;;;;;;27.50;21.03;;;12.90;99.90;;;;;;5113730;28;20245;-71
2022/05/17 03:50:30;;;;;;;22.13;19.80;;;12.90;99.90;;;;;;5113871;28;20229;-69
2022/05/17 03:52:57;;;;;;;26.40;20.37;;;12.80;99.90;;;;;;5113659;28;20577;-69
2022/05/17 03:55:23;;;;;;;23.90;20.63;;;12.90;99.90;;;;;;5113723;28;20200;-70
2022/05/17 03:57:51;;;;;;;26.60;20.93;;;12.90;99.90;;;;;;5113762;28;20830;-69
2022/05/17 04:00:19;;;;;;;26.70;21.13;;;12.90;99.90;;;;;;5113424;28;20763;-69
2022/05/17 04:02:46;;;;;;;31.03;21.10;;;12.90;99.90;;;;;;5113363;28;20229;-69
2022/05/17 04:05:12;;;;;;;26.93;20.40;;;12.90;99.90;;;;;;5113486;28;20674;-69
2022/05/17 04:07:39;;;;;;;24.73;20.30;;;12.90;99.90;;;;;;5113643;28;20327;-69
2022/05/17 04:10:08;;;;;;;24.53;20.30;;;13.00;99.90;;;;;;5113452;28;20196;-69
2022/05/17 04:12:35;;;;;;;26.10;21.20;;;13.00;99.90;;;;;;5113526;28;20206;-69
2022/05/17 04:15:04;;;;;;;26.27;20.87;;;13.00;99.90;;;;;;5113331;28;20199;-70
2022/05/17 04:17:30;;;;;;;23.17;20.67;;;13.00;99.90;;;;;;5112709;28;20219;-69
2022/05/17 04:20:02;;;;;;;22.03;19.73;;;13.10;99.90;;;;;;5113377;28;20211;-69
2022/05/17 04:22:29;;;;;;;26.17;20.43;;;13.20;99.90;;;;;;5113571;28;20244;-69
2022/05/17 04:24:56;;;;;;;28.67;20.10;;;13.30;99.90;;;;;;5113298;28;20199;-69
2022/05/17 04:27:23;;;;;;;25.23;21.00;;;13.30;99.90;;;;;;5113180;28;20581;-69
2022/05/17 04:29:50;;;;;;;24.03;20.33;;;13.30;99.90;;;;;;5113305;28;20735;-69
2022/05/17 04:32:19;;;;;;;27.70;19.60;;;13.30;99.90;;;;;;5113416;28;20203;-69
2022/05/17 04:34:46;;;;;;;26.73;20.07;;;13.40;99.90;;;;;;5113401;28;20200;-70
2022/05/17 04:37:12;;;;;;;22.50;20.10;;;13.40;99.90;;;;;;5113171;28;20199;-70
2022/05/17 04:39:39;;;;;;;23.63;20.23;;;13.50;99.90;;;;;;5113161;28;20196;-71
2022/05/17 04:42:07;;;;;;;23.83;19.87;;;13.50;99.90;;;;;;5113093;28;20270;-70
2022/05/17 04:44:33;;;;;;;21.93;18.67;;;13.60;99.90;;;;;;5113403;28;20199;-69
2022/05/17 04:47:00;;;;;;;20.67;18.47;;;13.70;99.90;;;;;;5113246;28;20200;-69
2022/05/17 04:49:28;;;;;;;20.50;18.30;;;13.70;99.90;;;;;;5113034;28;20210;-70
2022/05/17 04:51:55;;;;;;;25.90;19.67;;;13.80;99.90;;;;;;5113291;28;20558;-69
2022/05/17 04:54:22;;;;;;;20.73;17.60;;;13.80;99.90;;;;;;5112983;28;20195;-69
2022/05/17 04:56:48;;;;;;;24.60;18.10;;;13.80;99.90;;;;;;5112856;28;20267;-69
2022/05/17 04:59:15;;;;;;;23.43;19.03;;;13.80;99.90;;;;;;5113064;28;20219;-70
2022/05/17 05:01:42;;;;;;;23.80;18.40;;;13.90;99.90;;;;;;5112842;28;20231;-71
2022/05/17 05:04:10;;;;;;;20.23;17.60;;;13.90;99.90;;;;;;5112863;28;20570;-70
2022/05/17 05:06:38;;;;;;;20.17;17.23;;;14.00;99.90;;;;;;5112953;28;20199;-70
2022/05/17 05:09:05;;;;;;;18.67;16.73;;;14.10;99.90;;;;;;5112820;28;20248;-70
2022/05/17 05:11:31;;;;;;;18.23;16.30;;;14.30;99.90;;;;;;5113107;28;20257;-70
2022/05/17 05:13:58;;;;;;;18.17;15.67;;;14.30;99.90;;;;;;5112987;28;20248;-70
2022/05/17 05:16:24;;;;;;;18.57;15.63;;;14.40;99.90;;;;;;5112705;28;20589;-71
2022/05/17 05:18:52;;;;;;;19.37;14.77;;;14.50;99.90;;;;;;5112840;28;20224;-71
2022/05/17 05:21:19;;;;;;;22.37;16.27;;;14.50;99.90;;;;;;5112827;28;20219;-71
2022/05/17 05:23:47;;;;;;;16.70;14.93;;;14.60;99.90;;;;;;5112693;28;20252;-71
2022/05/17 05:26:15;;;;;;;17.53;14.40;;;14.80;99.90;;;;;;5112975;28;20200;-71
2022/05/17 05:28:44;;;;;;;15.93;13.63;;;14.80;99.90;;;;;;5113046;28;20287;-71
2022/05/17 05:31:12;;;;;;;16.00;14.20;;;14.90;99.90;;;;;;5118757;27;20196;-71
2022/05/17 05:33:40;;;;;;;17.93;14.53;;;15.00;99.90;;;;;;5124239;27;20200;-71
2022/05/17 05:36:07;;;;;;;17.00;13.40;;;15.10;99.90;;;;;;5125471;27;20205;-70
2022/05/17 05:38:34;;;;;;;18.17;13.93;;;15.20;99.90;;;;;;5126809;27;20310;-71
2022/05/17 05:41:02;;;;;;;21.33;14.43;;;15.30;99.90;;;;;;5125290;27;20202;-70
2022/05/17 05:43:29;;;;;;;17.00;13.23;;;15.40;99.90;;;;;;5127148;27;20281;-70
2022/05/17 05:45:56;;;;;;;15.60;13.93;;;15.60;99.90;;;;;;5125434;27;20188;-71
2022/05/17 05:48:22;;;;;;;20.87;13.20;;;15.70;99.90;;;;;;5125210;27;20191;-71
2022/05/17 05:50:51;;;;;;;16.23;13.47;;;15.80;99.90;;;;;;5126782;27;20203;-70
2022/05/17 05:53:18;;;;;;;16.57;12.67;;;15.90;99.90;;;;;;5125775;27;20188;-71
2022/05/17 05:55:45;;;;;;;21.40;13.53;;;16.00;99.90;;;;;;5125142;27;20190;-71
2022/05/17 05:58:14;;;;;;;17.10;13.37;;;16.10;99.90;;;;;;5124897;27;20252;-71
2022/05/17 06:00:40;;;;;;;17.33;13.97;;;16.20;99.90;;;;;;5125235;27;20222;-71
2022/05/17 06:03:08;;;;;;;15.60;13.37;;;16.30;99.90;;;;;;5126820;27;20193;-70
2022/05/17 06:05:36;;;;;;;15.70;12.30;;;16.30;99.90;;;;;;5122811;27;20199;-70
2022/05/17 06:08:03;;;;;;;15.88;12.10;;;16.30;99.90;;;;;;5117923;27;20202;-70
2022/05/17 06:10:31;;;;;;;14.20;12.23;;;16.30;99.90;;;;;;5122974;27;20204;-71
2022/05/17 06:12:58;;;;;;;17.10;12.20;;;16.50;99.90;;;;;;5124909;27;20199;-70
2022/05/17 06:15:26;;;;;;;14.73;12.27;;;16.60;99.90;;;;;;5110795;27;20195;-72
2022/05/17 06:17:53;;;;;;;17.40;12.05;;;16.60;99.90;;;;;;5110046;27;20202;-71
2022/05/17 06:20:20;;;;;;;13.90;11.57;;;16.60;99.90;;;;;;5103857;27;20552;-70
2022/05/17 06:22:47;;;;;;;17.65;12.35;;;16.60;99.90;;;;;;5113356;27;20199;-72
2022/05/17 06:25:13;;;;;;;16.35;12.20;;;16.80;99.90;;;;;;5129718;27;20210;-70
2022/05/17 06:27:41;;;;;;;14.67;11.87;;;16.80;99.90;;;;;;5121830;27;20195;-71
2022/05/17 06:30:10;;;;;;;15.75;11.52;;;16.80;99.90;;;;;;5126396;27;20228;-72
2022/05/17 06:32:38;;;;;;;14.50;11.95;;;17.00;99.90;;;;;;5114027;27;20219;-71
2022/05/17 06:35:05;;;;;;;12.55;10.82;;;17.10;99.90;;;;;;5112409;27;20195;-71
2022/05/17 06:37:32;;;;;;;14.30;10.98;;;17.20;99.90;;;;;;5117340;27;20284;-72
2022/05/17 06:39:59;;;;;;;13.80;11.68;;;17.30;99.90;;;;;;5122889;27;20242;-72
2022/05/17 06:42:27;;;;;;;16.80;11.70;;;17.30;99.90;;;;;;5129532;27;20201;-72
2022/05/17 06:44:54;;;;;;;18.73;11.55;;;17.30;99.90;;;;;;5120894;27;20195;-72
2022/05/17 06:47:21;;;;;;;16.42;10.85;;;17.30;99.90;;;;;;5117661;27;20204;-71
2022/05/17 06:49:49;;;;;;;14.25;11.48;;;17.30;99.90;;;;;;5129375;27;20678;-69
2022/05/17 06:52:16;;;;;;;17.33;11.77;;;17.50;99.90;;;;;;5117794;27;20207;-70
2022/05/17 06:54:43;;;;;;;14.77;10.88;;;17.60;99.90;;;;;;5122785;27;20199;-70
2022/05/17 06:57:11;;;;;;;14.93;11.38;;;17.80;99.90;;;;;;5113664;28;20612;-71
2022/05/17 06:59:39;;;;;;;13.82;11.40;;;17.80;99.90;;;;;;5124921;27;20276;-70
2022/05/17 07:02:07;;;;;;;13.73;11.32;;;17.90;99.90;;;;;;5123696;27;20270;-72
2022/05/17 07:04:35;;;;;;;14.70;10.85;;;18.00;99.90;;;;;;5125263;27;20612;-71
2022/05/17 07:07:03;;;;;;;13.82;10.05;;;18.00;99.90;;;;;;5133335;27;20551;-71
2022/05/17 07:09:31;;;;;;;13.13;11.02;;;18.10;99.90;;;;;;5113958;27;20609;-71
2022/05/17 07:14:42;;;;;;;16.02;10.55;;;18.10;99.90;;;;;;5116773;27;20308;-71
2022/05/17 07:17:15;;;;;;;11.45;10.25;;;18.10;99.90;;;;;;5121158;27;20221;-72
2022/05/17 07:19:42;;;;;;;12.60;10.50;;;18.10;99.90;;;;;;5119384;27;20381;-72
2022/05/17 07:22:11;;;;;;;14.80;10.05;;;18.20;99.90;;;;;;5117779;27;20593;-72
2022/05/17 07:24:40;;;;;;;10.65;9.43;;;18.50;99.90;;;;;;5112520;28;20225;-71
2022/05/17 07:27:08;;;;;;;11.35;9.70;;;18.80;99.90;;;;;;5116934;27;20202;-72
2022/05/17 07:29:35;;;;;;;13.38;9.02;;;18.80;99.90;;;;;;5126761;27;20687;-70
2022/05/17 07:32:02;;;;;;;11.02;9.18;;;18.90;99.90;;;;;;5119762;27;20190;-69
2022/05/17 07:34:28;;;;;;;15.02;9.63;;;19.20;99.90;;;;;;5130157;27;20191;-71
2022/05/17 07:36:55;;;;;;;12.18;9.95;;;19.20;99.90;;;;;;5112889;28;20256;-71
2022/05/17 07:39:23;;;;;;;13.05;9.32;;;19.10;99.90;;;;;;5129348;27;20252;-71
2022/05/17 07:41:50;;;;;;;14.60;9.60;;;19.30;99.90;;;;;;5117807;27;20231;-70
2022/05/17 07:44:17;;;;;;;11.63;8.65;;;19.00;99.90;;;;;;5112076;28;20248;-70
2022/05/17 07:46:43;;;;;;;11.00;9.43;;;19.20;99.90;;;;;;5116847;27;20670;-70
2022/05/17 07:49:10;;;;;;;11.68;8.55;;;19.30;99.90;;;;;;5133319;27;20203;-70
2022/05/17 07:51:36;;;;;;;11.73;8.75;;;19.30;99.90;;;;;;5132567;27;20203;-70
2022/05/17 07:54:04;;;;;;;15.63;7.53;;;19.40;99.90;;;;;;5114857;27;20196;-73
2022/05/17 07:56:32;;;;;;;14.30;8.50;;;19.80;99.90;;;;;;5116626;27;20320;-72
2022/05/17 07:58:59;;;;;;;14.45;8.25;;;19.90;99.90;;;;;;5125611;27;20226;-73
2022/05/17 08:01:25;;;;;;;14.00;9.40;;;20.20;99.90;;;;;;5127065;27;20334;-74
2022/05/17 08:03:52;;;;;;;17.00;8.98;;;20.20;99.90;;;;;;5116891;27;20237;-73
2022/05/17 08:06:19;;;;;;;11.85;8.85;;;20.20;99.90;;;;;;5126902;27;20566;-73
2022/05/17 08:08:46;;;;;;;13.85;8.93;;;20.30;99.90;;;;;;5111094;28;20278;-73
2022/05/17 08:11:12;;;;;;;11.68;7.80;;;20.00;99.90;;;;;;5112502;28;20265;-73
2022/05/17 08:13:40;;;;;;;11.95;8.82;;;20.30;99.90;;;;;;5118808;27;20604;-74
2022/05/17 08:16:07;;;;;;;12.88;7.50;;;20.10;99.90;;;;;;5123824;27;20199;-74
2022/05/17 08:18:34;;;;;;;12.65;8.00;;;20.20;99.90;;;;;;5123936;27;20227;-73
2022/05/17 08:21:00;;;;;;;9.93;8.60;;;20.40;99.90;;;;;;5112109;27;20207;-74
2022/05/17 08:23:27;;;;;;;10.77;8.27;;;20.50;99.90;;;;;;5118640;27;20240;-74
2022/05/17 08:28:41;;;;;;;11.15;7.78;;;20.40;99.90;;;;;;5115862;27;20252;-74
2022/05/17 08:31:10;;;;;;;10.88;6.97;;;20.60;99.90;;;;;;5123467;27;20191;-75
2022/05/17 08:33:38;;;;;;;8.52;7.50;;;21.00;99.90;;;;;;5120249;27;20199;-73
2022/05/17 08:36:07;;;;;;;10.15;7.53;;;20.70;99.90;;;;;;5111902;28;20210;-73
2022/05/17 08:38:38;;;;;;;7.93;6.78;;;20.80;99.90;;;;;;5126420;28;20199;-74
2022/05/17 08:41:14;;;;;;;11.80;7.95;;;21.10;99.90;;;;;;5129240;28;20207;-74
2022/05/17 08:43:51;;;;;;;10.88;8.15;;;20.70;99.90;;;;;;5112056;28;20203;-73
2022/05/17 08:46:27;;;;;;;10.95;8.13;;;21.00;99.90;;;;;;5110853;28;20203;-74
2022/05/17 08:49:02;;;;;;;12.10;8.82;;;21.10;99.90;;;;;;5118078;28;20253;-75
2022/05/17 08:51:41;;;;;;;10.18;8.30;;;21.30;99.90;;;;;;5117528;28;20603;-72
2022/05/17 08:54:12;;;;;;;10.30;7.78;;;21.50;99.90;;;;;;5121285;28;20194;-72
2022/05/17 08:56:43;;;;;;;10.25;7.50;;;22.00;99.90;;;;;;5128605;28;20195;-74
2022/05/17 08:59:16;;;;;;;10.15;7.97;;;21.60;99.90;;;;;;5125449;28;20214;-74
2022/05/17 09:01:46;;;;;;;14.07;8.70;;;21.50;99.90;;;;;;5108200;28;20312;-74
2022/05/17 09:04:24;;;;;;;8.98;7.80;;;21.50;99.90;;;;;;5111324;27;20192;-74
2022/05/17 09:07:00;;;;;;;9.57;7.78;;;21.10;99.90;;;;;;5123580;27;20343;-73
2022/05/17 09:09:41;;;;;;;9.18;6.75;;;22.00;99.90;;;;;;5123375;27;20259;-74
2022/05/17 09:12:15;;;;;;;13.55;7.60;;;22.40;99.90;;;;;;5122440;27;20249;-73
2022/05/17 09:14:48;;;;;;;10.07;7.40;;;22.60;99.90;;;;;;5121314;27;20650;-74
2022/05/17 09:17:21;;;;;;;15.38;8.60;;;22.70;99.90;;;;;;5120255;27;20653;-73
2022/05/17 09:19:50;;;;;;;11.02;7.22;;;22.40;99.90;;;;;;5118864;27;20251;-74
2022/05/17 09:22:16;;;;;;;10.38;6.40;;;23.40;99.90;;;;;;5124484;27;20206;-74
2022/05/17 09:24:51;;;;;;;7.95;6.57;;;23.20;99.90;;;;;;5132224;27;20194;-74
2022/05/17 09:27:24;;;;;;;10.52;6.20;;;22.70;99.90;;;;;;5129325;27;20205;-73
2022/05/17 09:29:57;;;;;;;11.85;6.72;;;22.30;99.90;;;;;;5119116;27;20191;-73
2022/05/17 09:32:26;;;;;;;11.95;7.70;;;22.20;99.90;;;;;;5124454;27;20286;-73
2022/05/17 09:35:00;;;;;;;9.05;7.28;;;22.40;99.90;;;;;;5131987;27;20635;-74
2022/05/17 09:37:35;;;;;;;8.02;6.65;;;23.10;99.90;;;;;;5124035;27;20203;-74
2022/05/17 09:40:05;;;;;;;7.90;6.72;;;23.70;99.90;;;;;;5132304;27;20250;-74
2022/05/17 09:42:38;;;;;;;9.90;6.32;;;23.20;99.90;;;;;;5116085;28;20262;-74
2022/05/17 09:45:12;;;;;;;9.57;7.05;;;22.90;99.90;;;;;;5124308;27;20256;-75
2022/05/17 09:47:43;;;;;;;8.82;6.82;;;22.90;99.90;;;;;;5116612;28;20203;-74
2022/05/17 09:53:04;;;;;;;10.27;6.40;;;23.30;98.60;;;;;;5136671;27;20210;-74
2022/05/17 09:55:33;;;;;;;9.88;7.47;;;23.40;97.80;;;;;;5132923;27;20708;-75
2022/05/17 09:58:03;;;;;;;9.82;7.03;;;23.90;97.50;;;;;;5148857;27;20192;-73
2022/05/17 10:00:40;;;;;;;7.70;6.72;;;23.00;97.60;;;;;;5141682;27;20307;-72
2022/05/17 10:03:27;;;;;;;14.43;6.60;;;23.10;97.70;;;;;;5136390;27;20220;-74
2022/05/17 10:05:57;;;;;;;10.93;6.25;;;23.70;96.10;;;;;;5145834;27;20195;-74
2022/05/17 10:08:47;;;;;;;10.40;6.55;;;24.10;92.60;;;;;;5130680;27;20211;-74
2022/05/17 10:11:18;;;;;;;8.00;5.32;;;24.00;92.90;;;;;;5127483;27;20680;-74
2022/05/17 10:14:13;;;;;;;5.88;4.55;;;25.30;90.70;;;;;;5125408;27;20205;-75
2022/05/17 10:16:48;;;;;;;7.80;5.10;;;26.40;81.30;;;;;;5126015;27;20199;-74
2022/05/17 10:19:27;;;;;;;9.20;6.05;;;27.40;73.30;;;;;;5123026;27;20222;-74
2022/05/17 10:22:00;;;;;;;10.32;5.88;;;27.10;68.50;;;;;;5123155;27;20196;-74
2022/05/17 10:24:33;;;;;;;8.18;5.15;;;26.80;73.10;;;;;;5121383;27;20234;-74
2022/05/17 10:27:06;;;;;;;10.45;5.90;;;25.60;71.40;;;;;;5122972;27;20200;-74
2022/05/17 10:29:39;;;;;;;8.43;5.85;;;24.90;77.00;;;;;;5114509;27;20229;-74
2022/05/17 10:32:14;;;;;;;7.10;4.60;;;25.30;75.80;;;;;;5117096;27;20191;-73
2022/05/17 10:34:48;;;;;;;4.85;3.92;;;26.20;71.90;;;;;;5134400;27;20198;-75
2022/05/17 10:37:19;;;;;;;5.38;4.70;;;27.60;65.80;;;;;;5112948;27;20765;-75
2022/05/17 10:39:51;;;;;;;5.07;4.38;;;28.70;60.80;;;;;;5116380;27;20317;-75
2022/05/17 10:42:18;;;;;;;6.20;3.85;;;27.50;57.10;;;;;;5133601;27;20199;-74
2022/05/17 10:44:53;;;;;;;4.60;4.00;;;27.80;58.00;;;;;;5120687;27;20203;-76
2022/05/17 10:47:33;;;;;;;6.05;4.72;;;28.30;55.00;;;;;;5113135;27;20282;-75
2022/05/17 10:50:11;;;;;;;8.07;4.85;;;28.20;55.20;;;;;;5122123;27;20202;-75
2022/05/17 10:52:50;;;;;;;8.95;4.47;;;28.00;54.30;;;;;;5114788;27;20203;-75
2022/05/17 10:55:25;;;;;;;5.93;4.78;;;28.80;54.40;;;;;;5111648;27;20663;-76
2022/05/17 10:57:57;;;;;;;7.35;4.85;;;29.50;51.60;;;;;;5122251;27;20249;-75
2022/05/17 11:00:31;;;;;;;7.07;5.03;;;28.30;51.70;;;;;;5123908;27;20234;-75
2022/05/17 11:03:35;;;;;;;7.53;4.20;;;27.60;52.30;;;;;;5134105;27;20198;-75
2022/05/17 11:06:17;;;;;;;6.22;4.10;;;26.80;52.60;;;;;;5103000;27;20191;-76
2022/05/17 11:08:53;;;;;;;7.80;3.90;;;29.00;50.90;;;;;;5125128;27;20195;-75
2022/05/17 11:11:40;;;;;;;7.15;3.53;;;30.30;45.90;;;;;;5114320;27;20612;-75
2022/05/17 11:14:13;;;;;;;5.43;3.53;;;31.40;41.10;;;;;;5127973;27;20634;-75
2022/05/17 11:16:50;;;;;;;5.90;3.63;;;31.60;38.80;;;;;;5127516;27;20579;-76
2022/05/17 11:19:25;;;;;;;4.70;3.75;;;31.40;40.10;;;;;;5112440;28;20218;-75
2022/05/17 11:22:04;;;;;;;5.07;3.30;;;31.10;37.30;;;;;;5113505;28;20650;-76
2022/05/17 11:25:01;;;;;;;8.55;3.90;;;31.30;37.70;;;;;;5122586;27;20715;-76
2022/05/17 11:27:43;;;;;;;4.70;3.88;;;32.10;36.10;;;;;;5090835;27;20650;-74
2022/05/17 11:30:21;;;;;;;3.95;3.47;;;29.90;36.00;;;;;;5115702;27;20220;-75
2022/05/17 11:33:09;;;;;;;6.88;3.30;;;29.10;39.00;;;;;;5124897;27;20190;-76
2022/05/17 11:35:47;;;;;;;4.07;3.60;;;30.40;34.90;;;;;;5122599;27;20233;-76
2022/05/17 11:38:20;;;;;;;7.60;4.20;;;28.90;37.30;;;;;;5120600;27;20646;-75
2022/05/17 11:40:58;;;;;;;6.18;4.10;;;27.50;41.20;;;;;;5122676;27;20753;-74
2022/05/17 11:43:44;;;;;;;6.30;3.85;;;26.50;41.70;;;;;;5111706;27;20646;-75
2022/05/17 11:46:48;;;;;;;4.20;3.45;;;27.00;43.70;;;;;;5114828;27;20611;-75
2022/05/17 11:49:47;;;;;;;4.18;3.45;;;28.30;40.00;;;;;;5114522;27;20651;-75
2022/05/17 11:52:37;;;;;;;4.43;3.60;;;28.00;40.80;;;;;;5112634;28;20200;-75
2022/05/17 11:55:06;;;;;;;5.13;3.58;;;27.90;40.90;;;;;;5117740;27;20210;-75
2022/05/17 11:58:04;;;;;;;5.43;3.22;;;30.10;40.00;;;;;;5133636;27;20210;-76
2022/05/17 12:00:41;;;;;;;5.53;3.45;;;32.00;35.60;;;;;;5125451;27;20238;-77
2022/05/17 12:03:37;;;;;;;3.70;3.17;;;30.40;34.00;;;;;;5127057;27;20222;-76
2022/05/17 12:06:06;;;;;;;4.03;3.20;;;29.80;34.70;;;;;;5114709;27;20236;-76
2022/05/17 12:08:39;;;;;;;5.82;3.55;;;30.50;33.30;;;;;;5133171;27;20215;-76
2022/05/17 12:11:21;;;;;;;6.53;3.28;;;30.10;33.90;;;;;;5126290;27;20195;-75
2022/05/17 12:13:55;;;;;;;7.85;3.42;;;29.50;36.30;;;;;;5115978;27;20199;-77
2022/05/17 12:16:25;;;;;;;5.93;4.03;;;29.00;38.20;;;;;;5113212;28;20634;-76
2022/05/17 12:18:57;;;;;;;5.10;3.78;;;27.70;39.20;;;;;;5113537;28;20245;-75
2022/05/17 12:21:41;;;;;;;6.07;3.72;;;28.70;38.20;;;;;;5113244;28;20230;-75
2022/05/17 12:24:39;;;;;;;5.68;3.70;;;29.10;38.30;;;;;;5113107;28;20264;-75
2022/05/17 12:27:18;;;;;;;7.35;3.30;;;30.60;36.60;;;;;;5128743;27;20195;-76
2022/05/17 12:32:44;;;;;;;5.03;2.80;;;29.40;32.80;;;;;;5112910;28;20206;-75
2022/05/17 12:35:12;;;;;;;8.73;3.28;;;29.10;33.70;;;;;;5127300;27;20195;-75
2022/05/17 12:37:42;;;;;;;6.47;3.20;;;27.40;36.80;;;;;;5133770;27;20602;-75
2022/05/17 12:43:03;;;;;;;5.28;3.92;;;28.50;37.90;;;;;;5132944;28;20202;-75
2022/05/17 12:45:33;;;;;;;4.20;3.25;;;29.80;37.00;;;;;;5133459;28;20218;-74
2022/05/17 12:48:03;;;;;;;4.75;3.50;;;30.10;36.30;;;;;;5133463;28;20195;-75
2022/05/17 12:50:41;;;;;;;4.65;3.35;;;29.90;35.40;;;;;;5133543;28;20269;-76
2022/05/17 12:53:17;;;;;;;4.85;3.67;;;27.90;37.50;;;;;;5133357;28;20277;-75
2022/05/17 12:56:01;;;;;;;5.63;3.95;;;27.20;40.40;;;;;;5133441;28;20206;-75
2022/05/17 12:58:27;;;;;;;7.53;4.18;;;27.10;40.50;;;;;;5132755;28;20592;-75
2022/05/17 13:00:58;;;;;;;6.32;4.25;;;27.70;40.90;;;;;;5132183;28;20237;-74
2022/05/17 13:03:27;;;;;;;5.07;4.35;;;28.00;39.90;;;;;;5132824;28;20198;-75
2022/05/17 13:05:58;;;;;;;5.32;3.40;;;29.20;39.00;;;;;;5133703;28;20191;-75
2022/05/17 13:08:29;;;;;;;4.72;3.58;;;30.10;37.90;;;;;;5132792;28;20650;-75